createdAt,value
2019-02-14T10:06:21.924Z,64.95
2019-02-14T10:08:50.381Z,67.90
2019-02-14T10:11:18.762Z,58.17
2019-02-14T10:13:47.132Z,53.13
2019-02-14T10:16:15.547Z,55.78
2019-02-14T10:18:43.931Z,55.92
2019-02-14T10:21:12.311Z,52.88
2019-02-14T10:23:40.687Z,47.50
2019-02-14T10:26:09.117Z,49.05
2019-02-14T10:28:37.497Z,48.98
2019-02-14T10:31:05.882Z,46.58
2019-02-14T10:33:34.436Z,52.62
2019-02-14T10:36:04.415Z,51.50
2019-02-14T10:38:33.033Z,46.63
2019-02-14T10:41:01.415Z,45.28
2019-02-14T10:43:29.810Z,46.92
2019-02-14T10:45:58.223Z,44.58
2019-02-14T10:48:26.625Z,50.55
2019-02-14T10:50:55.031Z,47.58
2019-02-14T10:53:23.432Z,52.05
2019-02-14T10:55:51.815Z,47.05
2019-02-14T10:58:20.233Z,48.65
2019-02-14T11:00:48.691Z,48.75
2019-02-14T11:03:17.150Z,51.18
2019-02-14T11:05:45.572Z,48.13
2019-02-14T11:08:13.950Z,47.43
2019-02-14T11:10:42.329Z,45.23
2019-02-14T11:13:10.734Z,43.35
2019-02-14T11:15:39.113Z,42.58
2019-02-14T11:18:07.512Z,43.02
2019-02-14T11:20:35.904Z,46.83
2019-02-14T11:23:04.299Z,42.73
2019-02-14T11:25:38.079Z,43.05
2019-02-14T11:28:06.506Z,43.58
2019-02-14T11:30:34.883Z,41.20
2019-02-14T11:33:03.314Z,42.35
2019-02-14T11:35:31.702Z,43.60
2019-02-14T11:38:00.084Z,48.30
2019-02-14T11:40:28.503Z,39.70
2019-02-14T11:42:56.877Z,42.23
2019-02-14T11:45:25.718Z,34.55
2019-02-14T11:47:54.149Z,41.70
2019-02-14T11:50:22.525Z,40.08
2019-02-14T11:52:50.901Z,40.38
2019-02-14T11:55:19.311Z,43.35
2019-02-14T11:57:47.720Z,40.88
2019-02-14T12:00:26.385Z,41.37
2019-02-14T12:02:56.192Z,35.85
2019-02-14T12:05:24.861Z,43.75
2019-02-14T12:07:53.257Z,47.00
2019-02-14T12:10:21.660Z,41.28
2019-02-14T12:12:50.051Z,46.68
2019-02-14T12:15:18.493Z,43.68
2019-02-14T12:17:46.862Z,49.40
2019-02-14T12:20:15.922Z,51.70
2019-02-14T12:22:46.865Z,55.00
2019-02-14T12:25:23.424Z,59.27
2019-02-14T12:27:51.832Z,57.25
2019-02-14T12:30:20.233Z,53.02
2019-02-14T12:32:48.636Z,56.77
2019-02-14T12:35:17.114Z,52.98
2019-02-14T12:37:45.520Z,53.15
2019-02-14T12:40:14.287Z,54.58
2019-02-14T12:42:42.658Z,56.35
2019-02-14T12:45:20.504Z,54.88
2019-02-14T12:47:49.383Z,60.80
2019-02-14T12:50:17.803Z,66.22
2019-02-14T12:52:46.187Z,56.65
2019-02-14T12:55:14.587Z,59.95
2019-02-14T12:57:42.988Z,59.98
2019-02-14T13:00:14.671Z,62.17
2019-02-14T13:02:43.075Z,61.53
2019-02-14T13:05:11.441Z,58.42
2019-02-14T13:07:39.858Z,59.85
2019-02-14T13:10:13.228Z,59.20
2019-02-14T13:12:41.630Z,53.02
2019-02-14T13:15:15.746Z,56.55
2019-02-14T13:17:44.122Z,62.20
2019-02-14T13:20:12.533Z,56.20
2019-02-14T13:22:40.920Z,56.23
2019-02-14T13:25:10.927Z,60.73
2019-02-14T13:27:39.305Z,57.70
2019-02-14T13:30:11.000Z,54.25
2019-02-14T13:32:39.412Z,54.60
2019-02-14T13:35:07.788Z,55.40
2019-02-14T13:37:36.169Z,52.40
2019-02-14T13:40:05.852Z,60.55
2019-02-14T13:42:34.229Z,56.63
2019-02-14T13:45:02.630Z,58.20
2019-02-14T13:47:31.016Z,50.60
2019-02-14T13:49:59.439Z,47.03
2019-02-14T13:52:29.560Z,47.05
2019-02-14T13:54:57.989Z,50.67
2019-02-14T13:57:26.346Z,53.87
2019-02-14T13:59:54.743Z,50.92
2019-02-14T14:02:23.125Z,51.60
2019-02-14T14:04:51.573Z,50.12
2019-02-14T14:07:20.011Z,52.85
2019-02-14T14:09:48.462Z,51.95
2019-02-14T14:12:16.936Z,49.10
2019-02-14T14:14:45.348Z,46.73
2019-02-14T14:17:13.731Z,45.58
2019-02-14T14:19:42.115Z,48.63
2019-02-14T14:22:10.778Z,43.38
2019-02-14T14:24:39.106Z,46.23
2019-02-14T14:27:07.515Z,45.70
2019-02-14T14:29:35.911Z,43.80
2019-02-14T14:32:05.505Z,41.75
2019-02-14T14:34:33.909Z,40.73
2019-02-14T14:37:02.303Z,40.12
2019-02-14T14:39:30.709Z,38.05
2019-02-14T14:41:59.174Z,36.53
2019-02-14T14:44:29.320Z,39.33
2019-02-14T14:46:57.785Z,40.85
2019-02-14T14:49:26.223Z,40.25
2019-02-14T14:51:54.580Z,38.75
2019-02-14T14:54:23.025Z,38.35
2019-02-14T14:56:51.401Z,43.08
2019-02-14T14:59:19.777Z,37.90
2019-02-14T15:01:48.229Z,35.75
2019-02-14T15:04:16.628Z,31.80
2019-02-14T15:06:45.015Z,33.10
2019-02-14T15:09:13.424Z,34.53
2019-02-14T15:11:41.835Z,68.67
2019-02-14T15:14:10.270Z,135.70
2019-02-14T15:16:38.662Z,63.55
2019-02-14T15:19:07.069Z,110.92
2019-02-14T15:21:35.680Z,40.48
2019-02-14T15:24:04.072Z,99.40
2019-02-14T15:26:32.455Z,69.35
2019-02-14T15:29:00.847Z,62.27
2019-02-14T15:31:29.249Z,42.08
2019-02-14T15:33:57.733Z,39.58
2019-02-14T15:36:28.223Z,51.80
2019-02-14T15:38:56.226Z,84.42
2019-02-14T15:41:24.612Z,46.98
2019-02-14T15:43:52.981Z,40.15
2019-02-14T15:46:21.472Z,41.28
2019-02-14T15:48:49.857Z,43.95
2019-02-14T15:51:19.932Z,52.62
2019-02-14T15:53:48.429Z,61.98
2019-02-14T15:56:16.827Z,49.67
2019-02-14T15:58:45.261Z,88.00
2019-02-14T16:01:15.913Z,52.78
2019-02-14T16:03:43.699Z,58.85
2019-02-14T16:06:12.139Z,51.75
2019-02-14T16:08:40.681Z,57.23
2019-02-14T16:11:10.166Z,51.13
2019-02-14T16:13:39.109Z,50.58
2019-02-14T16:16:07.518Z,51.60
2019-02-14T16:18:35.927Z,48.10
2019-02-14T16:21:05.793Z,58.33
2019-02-14T16:23:34.415Z,58.83
2019-02-14T16:26:02.847Z,53.70
2019-02-14T16:28:31.249Z,53.35
2019-02-14T16:30:59.629Z,50.67
2019-02-14T16:33:28.031Z,51.13
2019-02-14T16:35:56.415Z,53.10
2019-02-14T16:38:24.818Z,60.48
2019-02-14T16:40:53.252Z,56.13
2019-02-14T16:43:21.623Z,61.88
2019-02-14T16:45:50.032Z,62.83
2019-02-14T16:48:18.407Z,62.55
2019-02-14T16:50:46.815Z,58.63
2019-02-14T16:53:15.236Z,63.68
2019-02-14T16:55:43.615Z,67.37
2019-02-14T16:58:11.995Z,94.03
2019-02-14T17:00:40.409Z,62.00
2019-02-14T17:03:08.789Z,59.80
2019-02-14T17:05:37.166Z,72.53
2019-02-14T17:08:05.555Z,68.17
2019-02-14T17:10:36.905Z,66.22
2019-02-14T17:13:04.035Z,65.35
2019-02-14T17:15:32.428Z,70.97
2019-02-14T17:18:00.820Z,67.12
2019-02-14T17:20:29.265Z,172.32
2019-02-14T17:22:57.647Z,88.20
2019-02-14T17:25:26.055Z,109.22
2019-02-14T17:27:54.426Z,76.25
2019-02-14T17:30:22.853Z,109.85
2019-02-14T17:32:51.233Z,97.90
2019-02-14T17:35:19.736Z,83.90
2019-02-14T17:37:48.123Z,106.78
2019-02-14T17:40:16.500Z,66.00
2019-02-14T17:42:44.942Z,65.22
2019-02-14T17:45:13.300Z,72.40
2019-02-14T17:47:41.765Z,88.78
2019-02-14T17:50:10.160Z,98.97
2019-02-14T17:52:38.590Z,197.32
2019-02-14T17:55:09.121Z,126.25
2019-02-14T17:57:37.506Z,99.40
2019-02-14T18:00:12.008Z,95.53
2019-02-14T18:05:09.266Z,74.53
2019-02-14T18:07:37.723Z,85.77
2019-02-14T18:10:09.384Z,69.72
2019-02-14T18:12:37.776Z,69.15
2019-02-14T18:15:09.448Z,65.03
2019-02-14T18:17:37.811Z,66.57
2019-02-14T18:20:09.041Z,95.62
2019-02-14T18:22:37.739Z,80.55
2019-02-14T18:25:08.991Z,78.62
2019-02-14T18:27:39.092Z,61.25
2019-02-14T18:30:11.240Z,61.35
2019-02-14T18:32:39.654Z,296.40
2019-02-14T18:35:10.619Z,245.33
2019-02-14T18:37:38.998Z,106.47
2019-02-14T18:40:09.472Z,131.52
2019-02-14T18:42:45.637Z,90.47
2019-02-14T18:45:14.195Z,113.40
2019-02-14T18:47:42.586Z,72.25
2019-02-14T18:50:14.491Z,84.22
2019-02-14T18:52:42.859Z,69.30
2019-02-14T18:55:11.922Z,63.23
2019-02-14T18:57:40.334Z,96.35
2019-02-14T19:00:11.915Z,77.50
2019-02-14T19:02:40.261Z,88.90
2019-02-14T19:05:10.787Z,79.60
2019-02-14T19:07:39.177Z,70.52
2019-02-14T19:10:16.063Z,88.40
2019-02-14T19:12:44.499Z,109.60
2019-02-14T19:15:13.496Z,59.30
2019-02-14T19:17:41.825Z,60.85
2019-02-14T19:20:11.322Z,76.45
2019-02-14T19:22:43.159Z,123.47
2019-02-14T19:25:11.566Z,80.57
2019-02-14T19:27:39.978Z,69.85
2019-02-14T19:30:10.725Z,61.23
2019-02-14T19:32:39.132Z,57.23
2019-02-14T19:35:10.479Z,57.95
2019-02-14T19:37:38.883Z,56.42
2019-02-14T19:40:08.539Z,57.62
2019-02-14T19:42:38.608Z,60.98
2019-02-14T19:45:09.509Z,66.53
2019-02-14T19:47:37.904Z,68.15
2019-02-14T19:50:11.499Z,70.17
2019-02-14T19:52:39.880Z,72.40
2019-02-14T19:55:09.485Z,89.28
2019-02-14T19:57:37.856Z,76.47
2019-02-14T20:00:11.935Z,84.60
2019-02-14T20:02:40.416Z,74.20
2019-02-14T20:05:09.643Z,72.82
2019-02-14T20:07:38.055Z,80.95
2019-02-14T20:10:09.577Z,73.00
2019-02-14T20:12:37.928Z,73.80
2019-02-14T20:15:09.720Z,76.20
2019-02-14T20:17:38.094Z,84.85
2019-02-14T20:20:08.469Z,75.97
2019-02-14T20:22:36.883Z,94.17
2019-02-14T20:25:08.640Z,78.28
2019-02-14T20:27:37.046Z,78.28
2019-02-14T20:30:07.857Z,76.92
2019-02-14T20:32:36.257Z,85.35
2019-02-14T20:35:06.605Z,77.27
2019-02-14T20:37:35.663Z,82.78
2019-02-14T20:40:07.367Z,94.72
2019-02-14T20:42:35.764Z,120.25
2019-02-14T20:45:06.209Z,119.72
2019-02-14T20:47:34.578Z,97.33
2019-02-14T20:50:02.986Z,86.90
2019-02-14T20:52:31.374Z,88.85
2019-02-14T20:54:59.767Z,86.20
2019-02-14T20:57:28.186Z,82.53
2019-02-14T20:59:56.731Z,85.07
2019-02-14T21:02:25.155Z,85.55
2019-02-14T21:04:53.545Z,89.32
2019-02-14T21:07:21.935Z,87.10
2019-02-14T21:09:50.396Z,89.65
2019-02-14T21:12:18.832Z,83.40
2019-02-14T21:14:48.914Z,84.13
2019-02-14T21:17:17.391Z,80.92
2019-02-14T21:19:47.413Z,86.65
2019-02-14T21:22:18.810Z,85.87
2019-02-14T21:24:47.446Z,85.38
2019-02-14T21:27:15.898Z,86.35
2019-02-14T21:29:44.293Z,85.65
2019-02-14T21:32:12.671Z,92.02
2019-02-14T21:34:45.821Z,97.10
2019-02-14T21:37:14.246Z,102.05
2019-02-14T21:39:42.643Z,103.97
2019-02-14T21:42:20.799Z,104.03
2019-02-14T21:44:41.131Z,105.45
2019-02-14T21:47:09.579Z,101.45
2019-02-14T21:49:37.956Z,96.67
2019-02-14T21:52:06.389Z,100.97
2019-02-14T21:54:34.802Z,96.57
2019-02-14T21:57:03.194Z,109.35
2019-02-14T21:59:31.606Z,106.52
2019-02-14T22:02:05.313Z,102.85
2019-02-14T22:04:30.198Z,101.55
2019-02-14T22:06:58.622Z,92.50
2019-02-14T22:09:27.036Z,98.95
2019-02-14T22:11:55.456Z,100.65
2019-02-14T22:14:23.926Z,98.00
2019-02-14T22:16:55.226Z,103.78
2019-02-14T22:19:23.615Z,101.40
2019-02-14T22:21:52.051Z,103.38
2019-02-14T22:24:20.449Z,103.92
2019-02-14T22:26:48.873Z,104.15
2019-02-14T22:29:17.279Z,103.65
2019-02-14T22:31:45.705Z,109.78
2019-02-14T22:34:14.120Z,105.25
2019-02-14T22:36:42.494Z,107.32
2019-02-14T22:39:10.895Z,101.80
2019-02-14T22:41:39.453Z,100.25
2019-02-14T22:44:07.853Z,107.92
2019-02-14T22:46:36.239Z,103.00
2019-02-14T22:49:04.661Z,100.55
2019-02-14T22:51:33.039Z,112.68
2019-02-14T22:54:01.866Z,108.90
2019-02-14T22:56:30.311Z,108.87
2019-02-14T22:58:58.715Z,117.33
2019-02-14T23:01:29.136Z,111.45
2019-02-14T23:03:57.175Z,112.37
2019-02-14T23:06:25.615Z,100.35
2019-02-14T23:08:54.043Z,100.38
2019-02-14T23:11:22.421Z,99.45
2019-02-14T23:13:50.833Z,97.45
2019-02-14T23:16:19.237Z,104.43
2019-02-14T23:18:47.834Z,98.80
2019-02-14T23:21:16.250Z,104.40
2019-02-14T23:23:46.387Z,98.97
2019-02-14T23:26:14.795Z,99.25
2019-02-14T23:28:43.199Z,97.95
2019-02-14T23:31:13.233Z,101.75
2019-02-14T23:33:41.646Z,100.80
2019-02-14T23:36:10.048Z,103.17
2019-02-14T23:38:38.469Z,101.05
2019-02-14T23:41:06.845Z,100.75
2019-02-14T23:43:35.332Z,103.00
2019-02-14T23:46:03.746Z,99.13
2019-02-14T23:48:32.114Z,99.70
2019-02-14T23:51:00.577Z,103.22
2019-02-14T23:53:28.896Z,103.62
2019-02-14T23:55:57.311Z,100.50
2019-02-14T23:58:27.539Z,98.82
